sensor_id;sensor_type;location;lat;lon;timestamp;P1;durP1;ratioP1;P2;durP2;ratioP2
19173;SDS011;9719;49.322;8.536;2022-10-26T00:00:24;2.80;;;1.30;;
19173;SDS011;9719;49.322;8.536;2022-10-26T00:05:28;3.88;;;1.65;;
19173;SDS011;9719;49.322;8.536;2022-10-26T00:10:35;1.85;;;1.30;;
19173;SDS011;9719;49.322;8.536;2022-10-26T00:15:40;2.22;;;1.73;;
19173;SDS011;9719;49.322;8.536;2022-10-26T00:20:42;9.05;;;2.08;;
19173;SDS011;9719;49.322;8.536;2022-10-26T00:25:53;1.58;;;1.20;;
19173;SDS011;9719;49.322;8.536;2022-10-26T00:30:58;3.80;;;1.60;;
19173;SDS011;9719;49.322;8.536;2022-10-26T00:36:01;1.95;;;1.65;;
19173;SDS011;9719;49.322;8.536;2022-10-26T00:41:04;2.65;;;1.85;;
19173;SDS011;9719;49.322;8.536;2022-10-26T00:46:08;3.00;;;1.70;;
19173;SDS011;9719;49.322;8.536;2022-10-26T00:51:14;1.67;;;1.58;;
19173;SDS011;9719;49.322;8.536;2022-10-26T00:56:24;2.33;;;1.30;;
19173;SDS011;9719;49.322;8.536;2022-10-26T01:01:28;2.10;;;1.17;;
19173;SDS011;9719;49.322;8.536;2022-10-26T01:06:32;2.10;;;1.50;;
19173;SDS011;9719;49.322;8.536;2022-10-26T01:11:37;1.83;;;1.70;;
19173;SDS011;9719;49.322;8.536;2022-10-26T01:16:43;2.38;;;1.50;;
19173;SDS011;9719;49.322;8.536;2022-10-26T01:21:55;1.60;;;1.50;;
19173;SDS011;9719;49.322;8.536;2022-10-26T01:27:11;1.70;;;1.50;;
19173;SDS011;9719;49.322;8.536;2022-10-26T01:32:29;1.98;;;1.23;;
19173;SDS011;9719;49.322;8.536;2022-10-26T01:37:36;3.38;;;1.70;;
19173;SDS011;9719;49.322;8.536;2022-10-26T01:42:45;7.22;;;2.75;;
19173;SDS011;9719;49.322;8.536;2022-10-26T01:47:52;3.50;;;1.70;;
19173;SDS011;9719;49.322;8.536;2022-10-26T01:52:56;3.50;;;1.98;;
19173;SDS011;9719;49.322;8.536;2022-10-26T01:58:00;2.47;;;1.27;;
19173;SDS011;9719;49.322;8.536;2022-10-26T02:03:12;2.92;;;1.45;;
19173;SDS011;9719;49.322;8.536;2022-10-26T02:08:30;2.20;;;1.65;;
19173;SDS011;9719;49.322;8.536;2022-10-26T02:13:46;2.03;;;1.70;;
19173;SDS011;9719;49.322;8.536;2022-10-26T02:18:57;1.38;;;1.20;;
19173;SDS011;9719;49.322;8.536;2022-10-26T02:24:03;1.63;;;1.50;;
19173;SDS011;9719;49.322;8.536;2022-10-26T02:29:08;1.38;;;1.27;;
19173;SDS011;9719;49.322;8.536;2022-10-26T02:34:17;2.88;;;1.60;;
19173;SDS011;9719;49.322;8.536;2022-10-26T02:39:22;4.38;;;1.48;;
19173;SDS011;9719;49.322;8.536;2022-10-26T02:44:26;1.30;;;1.20;;
19173;SDS011;9719;49.322;8.536;2022-10-26T02:49:33;3.40;;;1.88;;
19173;SDS011;9719;49.322;8.536;2022-10-26T02:54:38;5.05;;;1.67;;
19173;SDS011;9719;49.322;8.536;2022-10-26T02:59:48;5.20;;;1.50;;
19173;SDS011;9719;49.322;8.536;2022-10-26T03:04:54;5.72;;;2.67;;
19173;SDS011;9719;49.322;8.536;2022-10-26T03:10:01;2.53;;;1.58;;
19173;SDS011;9719;49.322;8.536;2022-10-26T03:15:03;2.90;;;2.05;;
19173;SDS011;9719;49.322;8.536;2022-10-26T03:20:08;3.72;;;1.98;;
19173;SDS011;9719;49.322;8.536;2022-10-26T03:25:11;3.45;;;1.70;;
19173;SDS011;9719;49.322;8.536;2022-10-26T03:30:14;2.75;;;2.33;;
19173;SDS011;9719;49.322;8.536;2022-10-26T03:35:18;4.80;;;2.35;;
19173;SDS011;9719;49.322;8.536;2022-10-26T03:40:20;3.53;;;1.70;;
19173;SDS011;9719;49.322;8.536;2022-10-26T03:45:22;3.83;;;1.85;;
19173;SDS011;9719;49.322;8.536;2022-10-26T03:50:25;3.13;;;1.70;;
19173;SDS011;9719;49.322;8.536;2022-10-26T03:55:27;1.67;;;1.58;;
19173;SDS011;9719;49.322;8.536;2022-10-26T04:00:29;2.22;;;1.98;;
19173;SDS011;9719;49.322;8.536;2022-10-26T04:05:32;4.65;;;1.55;;
19173;SDS011;9719;49.322;8.536;2022-10-26T04:10:35;2.13;;;1.73;;
19173;SDS011;9719;49.322;8.536;2022-10-26T04:15:56;2.97;;;1.80;;
19173;SDS011;9719;49.322;8.536;2022-10-26T04:21:00;2.28;;;1.30;;
19173;SDS011;9719;49.322;8.536;2022-10-26T04:26:03;1.70;;;1.60;;
19173;SDS011;9719;49.322;8.536;2022-10-26T04:31:05;3.30;;;2.33;;
19173;SDS011;9719;49.322;8.536;2022-10-26T04:36:08;1.88;;;1.77;;
19173;SDS011;9719;49.322;8.536;2022-10-26T04:41:10;3.00;;;1.92;;
19173;SDS011;9719;49.322;8.536;2022-10-26T04:46:12;1.95;;;1.63;;
19173;SDS011;9719;49.322;8.536;2022-10-26T04:51:16;2.78;;;1.60;;
19173;SDS011;9719;49.322;8.536;2022-10-26T04:56:18;1.52;;;1.42;;
19173;SDS011;9719;49.322;8.536;2022-10-26T05:01:20;3.22;;;1.65;;
19173;SDS011;9719;49.322;8.536;2022-10-26T05:06:23;3.08;;;1.60;;
19173;SDS011;9719;49.322;8.536;2022-10-26T05:11:25;3.42;;;2.03;;
19173;SDS011;9719;49.322;8.536;2022-10-26T05:16:27;7.00;;;2.28;;
19173;SDS011;9719;49.322;8.536;2022-10-26T05:21:31;2.60;;;1.77;;
19173;SDS011;9719;49.322;8.536;2022-10-26T05:26:33;4.03;;;2.15;;
19173;SDS011;9719;49.322;8.536;2022-10-26T05:31:35;2.92;;;1.90;;
19173;SDS011;9719;49.322;8.536;2022-10-26T05:36:38;5.57;;;2.28;;
19173;SDS011;9719;49.322;8.536;2022-10-26T05:41:40;2.85;;;1.67;;
19173;SDS011;9719;49.322;8.536;2022-10-26T05:46:42;4.20;;;1.70;;
19173;SDS011;9719;49.322;8.536;2022-10-26T05:51:45;3.50;;;2.00;;
19173;SDS011;9719;49.322;8.536;2022-10-26T05:56:47;4.35;;;1.92;;
19173;SDS011;9719;49.322;8.536;2022-10-26T06:01:55;2.45;;;1.80;;
19173;SDS011;9719;49.322;8.536;2022-10-26T06:07:09;3.45;;;2.45;;
19173;SDS011;9719;49.322;8.536;2022-10-26T06:12:13;2.45;;;1.88;;
19173;SDS011;9719;49.322;8.536;2022-10-26T06:17:20;2.95;;;2.10;;
19173;SDS011;9719;49.322;8.536;2022-10-26T06:22:38;1.92;;;1.58;;
19173;SDS011;9719;49.322;8.536;2022-10-26T06:27:51;5.05;;;2.00;;
19173;SDS011;9719;49.322;8.536;2022-10-26T06:33:01;2.40;;;1.88;;
19173;SDS011;9719;49.322;8.536;2022-10-26T06:38:06;6.70;;;2.53;;
19173;SDS011;9719;49.322;8.536;2022-10-26T06:43:11;4.15;;;2.13;;
19173;SDS011;9719;49.322;8.536;2022-10-26T06:48:20;6.13;;;3.95;;
19173;SDS011;9719;49.322;8.536;2022-10-26T06:53:28;17.48;;;8.23;;
19173;SDS011;9719;49.322;8.536;2022-10-26T06:58:33;4.95;;;3.03;;
19173;SDS011;9719;49.322;8.536;2022-10-26T07:03:37;5.35;;;2.20;;
19173;SDS011;9719;49.322;8.536;2022-10-26T07:08:41;2.38;;;2.17;;
19173;SDS011;9719;49.322;8.536;2022-10-26T07:13:42;4.45;;;3.47;;
19173;SDS011;9719;49.322;8.536;2022-10-26T07:18:44;2.58;;;2.42;;
19173;SDS011;9719;49.322;8.536;2022-10-26T07:23:48;3.83;;;2.45;;
19173;SDS011;9719;49.322;8.536;2022-10-26T07:28:51;5.95;;;2.72;;
19173;SDS011;9719;49.322;8.536;2022-10-26T07:33:53;18.85;;;9.52;;
19173;SDS011;9719;49.322;8.536;2022-10-26T07:38:57;8.38;;;3.88;;
19173;SDS011;9719;49.322;8.536;2022-10-26T07:43:59;4.32;;;3.42;;
19173;SDS011;9719;49.322;8.536;2022-10-26T07:49:01;3.55;;;2.67;;
19173;SDS011;9719;49.322;8.536;2022-10-26T07:54:05;5.03;;;2.92;;
19173;SDS011;9719;49.322;8.536;2022-10-26T07:59:07;2.65;;;1.95;;
19173;SDS011;9719;49.322;8.536;2022-10-26T08:04:11;3.17;;;2.58;;
19173;SDS011;9719;49.322;8.536;2022-10-26T08:09:14;6.05;;;3.30;;
19173;SDS011;9719;49.322;8.536;2022-10-26T08:14:16;8.77;;;5.28;;
19173;SDS011;9719;49.322;8.536;2022-10-26T08:19:18;8.38;;;4.28;;
19173;SDS011;9719;49.322;8.536;2022-10-26T08:24:22;8.82;;;4.30;;
19173;SDS011;9719;49.322;8.536;2022-10-26T08:29:24;5.43;;;2.58;;
19173;SDS011;9719;49.322;8.536;2022-10-26T08:34:26;3.22;;;2.40;;
19173;SDS011;9719;49.322;8.536;2022-10-26T08:39:30;4.07;;;2.35;;
19173;SDS011;9719;49.322;8.536;2022-10-26T08:44:33;2.67;;;2.47;;
19173;SDS011;9719;49.322;8.536;2022-10-26T08:49:40;8.50;;;3.15;;
19173;SDS011;9719;49.322;8.536;2022-10-26T08:54:49;4.63;;;2.13;;
19173;SDS011;9719;49.322;8.536;2022-10-26T08:59:58;4.72;;;2.58;;
19173;SDS011;9719;49.322;8.536;2022-10-26T09:05:02;3.50;;;1.85;;
19173;SDS011;9719;49.322;8.536;2022-10-26T09:10:29;3.72;;;2.63;;
19173;SDS011;9719;49.322;8.536;2022-10-26T09:15:41;2.78;;;1.67;;
19173;SDS011;9719;49.322;8.536;2022-10-26T09:20:55;3.90;;;2.15;;
19173;SDS011;9719;49.322;8.536;2022-10-26T09:26:11;1.30;;;1.20;;
19173;SDS011;9719;49.322;8.536;2022-10-26T09:31:15;2.85;;;1.60;;
19173;SDS011;9719;49.322;8.536;2022-10-26T09:36:18;10.73;;;2.30;;
19173;SDS011;9719;49.322;8.536;2022-10-26T09:41:25;2.15;;;1.95;;
19173;SDS011;9719;49.322;8.536;2022-10-26T09:46:30;3.17;;;1.50;;
19173;SDS011;9719;49.322;8.536;2022-10-26T09:51:37;2.20;;;1.38;;
19173;SDS011;9719;49.322;8.536;2022-10-26T09:56:43;1.65;;;1.50;;
19173;SDS011;9719;49.322;8.536;2022-10-26T10:01:48;4.00;;;1.77;;
19173;SDS011;9719;49.322;8.536;2022-10-26T10:06:51;3.05;;;1.63;;
19173;SDS011;9719;49.322;8.536;2022-10-26T10:12:19;1.83;;;1.58;;
19173;SDS011;9719;49.322;8.536;2022-10-26T10:17:21;1.80;;;1.40;;
19173;SDS011;9719;49.322;8.536;2022-10-26T10:22:24;2.35;;;1.38;;
19173;SDS011;9719;49.322;8.536;2022-10-26T10:27:29;2.05;;;1.80;;
19173;SDS011;9719;49.322;8.536;2022-10-26T10:32:32;4.10;;;1.50;;
19173;SDS011;9719;49.322;8.536;2022-10-26T10:37:35;1.70;;;1.35;;
19173;SDS011;9719;49.322;8.536;2022-10-26T10:42:42;3.75;;;1.88;;
19173;SDS011;9719;49.322;8.536;2022-10-26T10:47:56;3.22;;;1.33;;
19173;SDS011;9719;49.322;8.536;2022-10-26T10:53:14;2.78;;;1.17;;
19173;SDS011;9719;49.322;8.536;2022-10-26T10:58:20;3.67;;;1.60;;
19173;SDS011;9719;49.322;8.536;2022-10-26T11:03:38;2.05;;;1.60;;
19173;SDS011;9719;49.322;8.536;2022-10-26T11:08:52;2.75;;;2.33;;
19173;SDS011;9719;49.322;8.536;2022-10-26T11:13:59;4.35;;;1.30;;
19173;SDS011;9719;49.322;8.536;2022-10-26T11:19:07;2.05;;;1.30;;
19173;SDS011;9719;49.322;8.536;2022-10-26T11:24:19;4.68;;;2.72;;
19173;SDS011;9719;49.322;8.536;2022-10-26T11:29:30;3.05;;;1.45;;
19173;SDS011;9719;49.322;8.536;2022-10-26T11:34:36;3.60;;;1.50;;
19173;SDS011;9719;49.322;8.536;2022-10-26T11:39:43;7.95;;;2.53;;
19173;SDS011;9719;49.322;8.536;2022-10-26T11:44:48;7.72;;;1.90;;
19173;SDS011;9719;49.322;8.536;2022-10-26T11:49:59;1.25;;;1.13;;
19173;SDS011;9719;49.322;8.536;2022-10-26T11:55:06;3.13;;;1.48;;
19173;SDS011;9719;49.322;8.536;2022-10-26T12:00:15;2.67;;;1.88;;
19173;SDS011;9719;49.322;8.536;2022-10-26T12:05:19;2.72;;;1.95;;
19173;SDS011;9719;49.322;8.536;2022-10-26T12:10:25;3.70;;;1.52;;
19173;SDS011;9719;49.322;8.536;2022-10-26T12:15:31;3.17;;;1.50;;
19173;SDS011;9719;49.322;8.536;2022-10-26T12:31:43;2.00;;;1.23;;
19173;SDS011;9719;49.322;8.536;2022-10-26T12:36:48;2.33;;;1.70;;
19173;SDS011;9719;49.322;8.536;2022-10-26T12:42:26;2.35;;;1.45;;
19173;SDS011;9719;49.322;8.536;2022-10-26T12:53:10;6.53;;;2.88;;
19173;SDS011;9719;49.322;8.536;2022-10-26T13:03:51;4.18;;;1.80;;
19173;SDS011;9719;49.322;8.536;2022-10-26T13:09:07;4.72;;;1.65;;
19173;SDS011;9719;49.322;8.536;2022-10-26T13:14:20;3.05;;;1.85;;
19173;SDS011;9719;49.322;8.536;2022-10-26T13:19:25;2.88;;;1.52;;
19173;SDS011;9719;49.322;8.536;2022-10-26T13:24:33;5.22;;;1.55;;
19173;SDS011;9719;49.322;8.536;2022-10-26T13:35:12;2.83;;;1.40;;
19173;SDS011;9719;49.322;8.536;2022-10-26T13:40:17;2.63;;;1.30;;
19173;SDS011;9719;49.322;8.536;2022-10-26T13:45:22;1.90;;;1.10;;
19173;SDS011;9719;49.322;8.536;2022-10-26T13:50:29;3.25;;;1.75;;
19173;SDS011;9719;49.322;8.536;2022-10-26T13:55:36;1.95;;;1.30;;
19173;SDS011;9719;49.322;8.536;2022-10-26T14:06:13;1.63;;;1.30;;
19173;SDS011;9719;49.322;8.536;2022-10-26T14:11:21;2.67;;;1.52;;
19173;SDS011;9719;49.322;8.536;2022-10-26T14:16:31;5.25;;;1.20;;
19173;SDS011;9719;49.322;8.536;2022-10-26T14:21:38;3.38;;;1.30;;
19173;SDS011;9719;49.322;8.536;2022-10-26T14:26:43;3.03;;;1.33;;
19173;SDS011;9719;49.322;8.536;2022-10-26T14:31:46;3.10;;;1.85;;
19173;SDS011;9719;49.322;8.536;2022-10-26T14:36:50;2.85;;;1.60;;
19173;SDS011;9719;49.322;8.536;2022-10-26T14:41:56;3.30;;;1.27;;
19173;SDS011;9719;49.322;8.536;2022-10-26T14:47:01;1.02;;;0.90;;
19173;SDS011;9719;49.322;8.536;2022-10-26T14:52:04;2.40;;;1.52;;
19173;SDS011;9719;49.322;8.536;2022-10-26T15:02:32;3.70;;;1.48;;
19173;SDS011;9719;49.322;8.536;2022-10-26T15:07:36;2.05;;;1.45;;
19173;SDS011;9719;49.322;8.536;2022-10-26T15:12:41;2.47;;;1.30;;
19173;SDS011;9719;49.322;8.536;2022-10-26T15:17:47;2.15;;;1.45;;
19173;SDS011;9719;49.322;8.536;2022-10-26T15:22:52;6.50;;;1.95;;
19173;SDS011;9719;49.322;8.536;2022-10-26T15:28:08;4.05;;;1.85;;
19173;SDS011;9719;49.322;8.536;2022-10-26T15:33:16;4.88;;;1.80;;
19173;SDS011;9719;49.322;8.536;2022-10-26T15:38:20;4.80;;;1.65;;
19173;SDS011;9719;49.322;8.536;2022-10-26T15:43:24;3.08;;;1.30;;
19173;SDS011;9719;49.322;8.536;2022-10-26T15:48:26;2.72;;;2.08;;
19173;SDS011;9719;49.322;8.536;2022-10-26T15:53:31;3.17;;;1.63;;
19173;SDS011;9719;49.322;8.536;2022-10-26T15:58:35;4.63;;;2.05;;
19173;SDS011;9719;49.322;8.536;2022-10-26T16:03:37;2.35;;;2.17;;
19173;SDS011;9719;49.322;8.536;2022-10-26T16:08:39;3.47;;;1.92;;
19173;SDS011;9719;49.322;8.536;2022-10-26T16:13:42;4.53;;;1.92;;
19173;SDS011;9719;49.322;8.536;2022-10-26T16:18:45;3.58;;;1.90;;
19173;SDS011;9719;49.322;8.536;2022-10-26T16:23:49;5.20;;;2.13;;
19173;SDS011;9719;49.322;8.536;2022-10-26T16:28:54;7.45;;;2.75;;
19173;SDS011;9719;49.322;8.536;2022-10-26T16:33:56;4.65;;;2.28;;
19173;SDS011;9719;49.322;8.536;2022-10-26T16:38:58;4.72;;;2.10;;
19173;SDS011;9719;49.322;8.536;2022-10-26T16:44:01;7.43;;;3.67;;
19173;SDS011;9719;49.322;8.536;2022-10-26T16:49:03;3.47;;;1.95;;
19173;SDS011;9719;49.322;8.536;2022-10-26T16:54:05;2.85;;;1.95;;
19173;SDS011;9719;49.322;8.536;2022-10-26T16:59:09;4.10;;;2.30;;
19173;SDS011;9719;49.322;8.536;2022-10-26T17:04:11;4.20;;;2.35;;
19173;SDS011;9719;49.322;8.536;2022-10-26T17:09:13;6.10;;;3.50;;
19173;SDS011;9719;49.322;8.536;2022-10-26T17:14:16;3.83;;;2.63;;
19173;SDS011;9719;49.322;8.536;2022-10-26T17:19:18;5.13;;;2.80;;
19173;SDS011;9719;49.322;8.536;2022-10-26T17:24:21;4.20;;;2.35;;
19173;SDS011;9719;49.322;8.536;2022-10-26T17:29:24;3.58;;;2.30;;
19173;SDS011;9719;49.322;8.536;2022-10-26T17:34:26;5.78;;;2.58;;
19173;SDS011;9719;49.322;8.536;2022-10-26T17:39:28;3.72;;;2.22;;
19173;SDS011;9719;49.322;8.536;2022-10-26T17:44:31;3.42;;;2.47;;
19173;SDS011;9719;49.322;8.536;2022-10-26T17:49:34;6.25;;;2.67;;
19173;SDS011;9719;49.322;8.536;2022-10-26T17:54:36;3.10;;;2.70;;
19173;SDS011;9719;49.322;8.536;2022-10-26T17:59:39;3.17;;;2.45;;
19173;SDS011;9719;49.322;8.536;2022-10-26T18:04:41;3.25;;;2.22;;
19173;SDS011;9719;49.322;8.536;2022-10-26T18:09:44;5.65;;;2.45;;
19173;SDS011;9719;49.322;8.536;2022-10-26T18:14:48;5.40;;;3.00;;
19173;SDS011;9719;49.322;8.536;2022-10-26T18:19:50;5.00;;;3.78;;
19173;SDS011;9719;49.322;8.536;2022-10-26T18:24:52;9.10;;;4.20;;
19173;SDS011;9719;49.322;8.536;2022-10-26T18:29:55;4.38;;;3.60;;
19173;SDS011;9719;49.322;8.536;2022-10-26T18:34:57;4.80;;;3.45;;
19173;SDS011;9719;49.322;8.536;2022-10-26T18:39:59;6.72;;;3.90;;
19173;SDS011;9719;49.322;8.536;2022-10-26T18:45:03;5.40;;;4.07;;
19173;SDS011;9719;49.322;8.536;2022-10-26T18:50:05;6.50;;;3.88;;
19173;SDS011;9719;49.322;8.536;2022-10-26T18:55:08;6.03;;;4.38;;
19173;SDS011;9719;49.322;8.536;2022-10-26T19:00:12;6.28;;;4.57;;
19173;SDS011;9719;49.322;8.536;2022-10-26T19:05:15;9.70;;;4.80;;
19173;SDS011;9719;49.322;8.536;2022-10-26T19:10:17;8.57;;;4.13;;
19173;SDS011;9719;49.322;8.536;2022-10-26T19:15:20;5.38;;;4.68;;
19173;SDS011;9719;49.322;8.536;2022-10-26T19:20:22;5.65;;;5.00;;
19173;SDS011;9719;49.322;8.536;2022-10-26T19:25:24;6.05;;;4.90;;
19173;SDS011;9719;49.322;8.536;2022-10-26T19:30:28;9.05;;;4.70;;
19173;SDS011;9719;49.322;8.536;2022-10-26T19:35:30;7.10;;;4.47;;
19173;SDS011;9719;49.322;8.536;2022-10-26T19:40:32;5.50;;;4.45;;
19173;SDS011;9719;49.322;8.536;2022-10-26T19:45:35;6.35;;;4.10;;
19173;SDS011;9719;49.322;8.536;2022-10-26T19:50:37;10.02;;;5.95;;
19173;SDS011;9719;49.322;8.536;2022-10-26T19:55:41;7.70;;;5.47;;
19173;SDS011;9719;49.322;8.536;2022-10-26T20:00:44;5.85;;;4.00;;
19173;SDS011;9719;49.322;8.536;2022-10-26T20:05:46;5.45;;;4.43;;
19173;SDS011;9719;49.322;8.536;2022-10-26T20:10:48;9.45;;;4.63;;
19173;SDS011;9719;49.322;8.536;2022-10-26T20:15:54;6.18;;;4.55;;
19173;SDS011;9719;49.322;8.536;2022-10-26T20:20:56;7.85;;;3.60;;
19173;SDS011;9719;49.322;8.536;2022-10-26T20:25:58;7.00;;;4.15;;
19173;SDS011;9719;49.322;8.536;2022-10-26T20:31:03;8.15;;;5.38;;
19173;SDS011;9719;49.322;8.536;2022-10-26T20:36:06;6.53;;;4.22;;
19173;SDS011;9719;49.322;8.536;2022-10-26T20:41:08;8.15;;;4.50;;
19173;SDS011;9719;49.322;8.536;2022-10-26T20:46:17;5.60;;;3.60;;
19173;SDS011;9719;49.322;8.536;2022-10-26T20:51:23;5.32;;;4.00;;
19173;SDS011;9719;49.322;8.536;2022-10-26T20:56:37;5.97;;;3.80;;
19173;SDS011;9719;49.322;8.536;2022-10-26T21:01:43;4.90;;;3.63;;
19173;SDS011;9719;49.322;8.536;2022-10-26T21:06:45;8.40;;;4.57;;
19173;SDS011;9719;49.322;8.536;2022-10-26T21:11:47;5.03;;;4.07;;
19173;SDS011;9719;49.322;8.536;2022-10-26T21:16:50;6.78;;;3.85;;
19173;SDS011;9719;49.322;8.536;2022-10-26T21:21:53;4.40;;;3.90;;
19173;SDS011;9719;49.322;8.536;2022-10-26T21:26:55;6.85;;;4.00;;
19173;SDS011;9719;49.322;8.536;2022-10-26T21:31:58;4.55;;;3.45;;
19173;SDS011;9719;49.322;8.536;2022-10-26T21:37:00;6.95;;;3.70;;
19173;SDS011;9719;49.322;8.536;2022-10-26T21:42:02;6.20;;;3.65;;
19173;SDS011;9719;49.322;8.536;2022-10-26T21:47:05;9.63;;;5.20;;
19173;SDS011;9719;49.322;8.536;2022-10-26T21:52:07;4.55;;;3.22;;
19173;SDS011;9719;49.322;8.536;2022-10-26T21:57:09;4.88;;;4.00;;
19173;SDS011;9719;49.322;8.536;2022-10-26T22:02:13;4.55;;;3.20;;
19173;SDS011;9719;49.322;8.536;2022-10-26T22:07:15;12.88;;;4.30;;
19173;SDS011;9719;49.322;8.536;2022-10-26T22:12:18;9.77;;;4.78;;
19173;SDS011;9719;49.322;8.536;2022-10-26T22:17:22;6.97;;;3.80;;
19173;SDS011;9719;49.322;8.536;2022-10-26T22:22:24;5.25;;;3.38;;
19173;SDS011;9719;49.322;8.536;2022-10-26T22:27:26;4.72;;;3.35;;
19173;SDS011;9719;49.322;8.536;2022-10-26T22:32:29;4.13;;;3.65;;
19173;SDS011;9719;49.322;8.536;2022-10-26T22:37:31;5.45;;;3.72;;
19173;SDS011;9719;49.322;8.536;2022-10-26T22:42:33;4.43;;;3.63;;
19173;SDS011;9719;49.322;8.536;2022-10-26T22:47:37;8.43;;;4.10;;
19173;SDS011;9719;49.322;8.536;2022-10-26T22:52:39;5.93;;;3.47;;
19173;SDS011;9719;49.322;8.536;2022-10-26T22:57:41;4.10;;;3.20;;
19173;SDS011;9719;49.322;8.536;2022-10-26T23:02:44;10.30;;;4.05;;
19173;SDS011;9719;49.322;8.536;2022-10-26T23:07:46;5.05;;;3.33;;
19173;SDS011;9719;49.322;8.536;2022-10-26T23:12:48;4.15;;;3.28;;
19173;SDS011;9719;49.322;8.536;2022-10-26T23:17:53;3.92;;;2.60;;
19173;SDS011;9719;49.322;8.536;2022-10-26T23:22:55;4.50;;;3.10;;
19173;SDS011;9719;49.322;8.536;2022-10-26T23:27:56;5.07;;;3.20;;
19173;SDS011;9719;49.322;8.536;2022-10-26T23:33:00;4.10;;;3.40;;
19173;SDS011;9719;49.322;8.536;2022-10-26T23:38:02;4.22;;;3.50;;
19173;SDS011;9719;49.322;8.536;2022-10-26T23:43:04;5.40;;;3.53;;
19173;SDS011;9719;49.322;8.536;2022-10-26T23:48:07;4.65;;;3.00;;
19173;SDS011;9719;49.322;8.536;2022-10-26T23:53:09;6.95;;;3.20;;
19173;SDS011;9719;49.322;8.536;2022-10-26T23:58:12;2.85;;;2.25;;
